Time;durP1;ratioP1;P1;durP2;ratioP2;P2;SDS_P1;SDS_P2;PMS_P1;PMS_P2;Temp;Humidity;BMP_temperature;BMP_pressure;BME280_temperature;BME280_humidity;BME280_pressure;Samples;Min_cycle;Max_cycle;Signal;HPM_P1;HPM_P2
2022/02/09 00:07:40;;;;;;;;;;;3.00;99.90;;;;;;4934027;28;20038;-67
2022/02/09 00:10:09;;;;;;;;;;;3.10;99.90;;;;;;4932679;28;20258;-64
2022/02/09 00:15:27;;;;;;;;;;;3.00;99.90;;;;;;4934718;28;19957;-68
2022/02/09 00:23:30;;;;;;;;;;;3.00;99.90;;;;;;4935418;28;20025;-68
2022/02/09 00:42:25;;;;;;;;;;;3.00;99.90;;;;;;4930842;28;20371;-67
2022/02/09 00:59:16;;;;;;;;;;;3.00;99.90;;;;;;4933642;28;20432;-67
2022/02/09 01:40:03;;;;;;;;;;;2.70;99.90;;;;;;4936120;28;19973;-68
2022/02/09 01:56:26;;;;;;;;;;;2.70;99.90;;;;;;4932280;28;19936;-66
2022/02/09 01:58:53;;;;;;;;;;;2.70;99.90;;;;;;4933845;28;19930;-66
2022/02/09 02:01:20;;;;;;;;;;;2.70;99.90;;;;;;4934867;28;20056;-64
2022/02/09 02:03:46;;;;;;;;;;;2.70;99.90;;;;;;4935693;28;20016;-68
2022/02/09 02:06:15;;;;;;;;;;;2.70;99.90;;;;;;4933667;28;19926;-67
2022/02/09 02:08:43;;;;;;;;;;;2.70;99.90;;;;;;4937753;28;19942;-63
2022/02/09 02:18:54;;;;;;;;;;;2.70;99.90;;;;;;4938107;28;20529;-65
2022/02/09 02:21:29;;;;;;;;;;;2.70;99.90;;;;;;4934645;28;19990;-66
2022/02/09 02:59:16;;;;;;;;;;;2.60;99.90;;;;;;4935047;28;19938;-68
2022/02/09 03:15:26;;;;;;;;;;;2.60;99.90;;;;;;4936617;28;21691;-68
2022/02/09 03:17:39;;;;;;;;;;;2.60;99.90;;;;;;4934347;28;20973;-67
2022/02/09 03:42:16;;;;;;;;;;;2.60;99.90;;;;;;4936542;28;20605;-68
2022/02/09 03:47:47;;;;;;;;;;;2.60;99.90;;;;;;3572898;28;10001384;-70
2022/02/09 03:55:48;;;;;;;;;;;2.60;99.90;;;;;;4935899;28;20013;-69
2022/02/09 03:58:18;;;;;;;;;;;2.50;99.90;;;;;;4937139;28;20730;-68
2022/02/09 04:00:46;;;;;;;;;;;2.50;99.90;;;;;;4934624;28;19931;-67
2022/02/09 04:03:23;;;;;;;;;;;2.50;99.90;;;;;;4936931;28;19930;-67
2022/02/09 04:05:51;;;;;;;;;;;2.50;99.90;;;;;;4934528;28;19985;-68
2022/02/09 04:08:20;;;;;;;;;;;2.50;99.90;;;;;;4935268;28;20351;-68
2022/02/09 04:11:14;;;;;;;;;;;2.50;99.90;;;;;;4936260;28;20021;-68
2022/02/09 04:13:53;;;;;;;;;;;2.50;99.90;;;;;;4934945;28;19977;-66
2022/02/09 04:40:14;;;;;;;;;;;2.80;99.90;;;;;;4934681;28;21446;-65
2022/02/09 04:43:03;;;;;;;;;;;2.80;99.90;;;;;;4933547;28;19962;-64
2022/02/09 04:48:26;;;;;;;;;;;2.90;99.90;;;;;;4932006;28;20005;-69
2022/02/09 04:51:19;;;;;;;;;;;2.90;99.90;;;;;;4936746;28;19970;-69
2022/02/09 04:59:08;;;;;;;;;;;2.90;99.90;;;;;;4934451;28;19950;-68
2022/02/09 05:23:49;;;;;;;;;;;3.00;99.90;;;;;;4931021;28;20475;-66
2022/02/09 05:28:43;;;;;;;;;;;3.00;99.90;;;;;;4929686;28;19930;-67
2022/02/09 05:31:10;;;;;;;;;;;3.00;99.90;;;;;;4934837;28;20009;-66
2022/02/09 05:33:37;;;;;;;;;;;3.00;99.90;;;;;;4932479;28;20020;-66
2022/02/09 05:36:04;;;;;;;;;;;3.10;99.90;;;;;;4934364;28;20029;-70
2022/02/09 05:38:31;;;;;;;;;;;3.10;99.90;;;;;;4937612;28;19931;-66
2022/02/09 05:40:58;;;;;;;;;;;3.10;99.90;;;;;;4937766;28;19936;-64
2022/02/09 05:43:27;;;;;;;;;;;3.00;99.90;;;;;;4853308;28;21854;-68
2022/02/09 05:51:21;;;;;;;;;;;3.00;99.90;;;;;;4937917;28;20024;-67
2022/02/09 05:59:03;;;;;;;;;;;3.00;99.90;;;;;;4937161;28;20025;-67
2022/02/09 06:01:30;;;;;;;;;;;3.00;99.90;;;;;;4940527;28;19925;-68
2022/02/09 06:03:57;;;;;;;;;;;3.00;99.90;;;;;;4929702;28;19930;-68
2022/02/09 06:06:24;;;;;;;;;;;2.90;99.90;;;;;;4936599;28;19938;-64
2022/02/09 06:08:50;;;;;;;;;;;3.00;99.90;;;;;;4936636;28;20366;-69
2022/02/09 06:11:28;;;;;;;;;;;3.00;99.90;;;;;;4936851;28;19930;-70
2022/02/09 06:22:00;;;;;;;;;;;3.00;99.90;;;;;;4935614;28;19937;-67
2022/02/09 06:24:27;;;;;;;;;;;3.00;99.90;;;;;;4935059;28;19938;-69
2022/02/09 06:26:54;;;;;;;;;;;3.00;99.90;;;;;;4937180;28;20673;-64
2022/02/09 06:29:22;;;;;;;;;;;3.00;99.90;;;;;;4932204;28;19930;-69
2022/02/09 06:31:50;;;;;;;;;;;2.90;99.90;;;;;;4937211;28;19939;-69
2022/02/09 06:34:19;;;;;;;;;;;3.00;99.90;;;;;;4932997;28;19937;-67
2022/02/09 06:36:55;;;;;;;;;;;2.90;99.90;;;;;;4937044;28;19992;-66
2022/02/09 06:39:22;;;;;;;;;;;2.90;99.90;;;;;;4934325;28;20053;-70
2022/02/09 06:41:49;;;;;;;;;;;2.90;99.90;;;;;;4934904;28;20452;-65
2022/02/09 06:44:15;;;;;;;;;;;2.90;99.90;;;;;;4934051;28;21218;-68
2022/02/09 06:46:42;;;;;;;;;;;3.00;99.90;;;;;;4935238;28;19969;-66
2022/02/09 06:49:09;;;;;;;;;;;3.00;99.90;;;;;;4933842;28;19930;-66
2022/02/09 06:51:39;;;;;;;;;;;3.00;99.90;;;;;;4937343;28;20113;-67
2022/02/09 06:54:15;;;;;;;;;;;3.00;99.90;;;;;;4931371;28;20393;-66
2022/02/09 06:59:15;;;;;;;;;;;3.00;99.90;;;;;;4934987;28;20045;-70
2022/02/09 07:01:42;;;;;;;;;;;3.10;99.90;;;;;;4933921;28;20073;-67
2022/02/09 07:04:09;;;;;;;;;;;3.00;99.90;;;;;;4933298;28;20099;-64
2022/02/09 07:06:36;;;;;;;;;;;3.10;99.90;;;;;;4933832;28;20289;-65
2022/02/09 07:09:03;;;;;;;;;;;3.20;99.90;;;;;;4932109;28;19938;-65
2022/02/09 07:11:30;;;;;;;;;;;3.20;99.90;;;;;;4936733;28;20029;-69
2022/02/09 07:13:57;;;;;;;;;;;3.20;99.90;;;;;;4932519;28;19965;-66
2022/02/09 07:16:24;;;;;;;;;;;3.20;99.90;;;;;;4934527;28;20024;-67
2022/02/09 07:18:51;;;;;;;;;;;3.30;99.90;;;;;;4935981;28;20717;-69
2022/02/09 07:21:31;;;;;;;;;;;3.30;99.90;;;;;;4934878;28;19974;-68
2022/02/09 07:23:59;;;;;;;;;;;3.40;99.90;;;;;;4929331;28;19934;-70
2022/02/09 07:26:29;;;;;;;;;;;3.40;99.90;;;;;;4929137;28;20001;-70
2022/02/09 07:28:59;;;;;;;;;;;3.40;99.90;;;;;;4932422;28;19930;-67
2022/02/09 07:31:26;;;;;;;;;;;3.40;99.90;;;;;;4936070;28;19931;-67
2022/02/09 07:33:54;;;;;;;;;;;3.40;99.90;;;;;;4932187;28;20056;-66
2022/02/09 07:36:20;;;;;;;;;;;3.40;99.90;;;;;;4934972;28;19963;-69
2022/02/09 07:38:47;;;;;;;;;;;3.40;99.90;;;;;;4936241;28;19926;-67
2022/02/09 07:41:14;;;;;;;;;;;3.30;99.90;;;;;;4924657;28;19944;-64
2022/02/09 07:53:58;;;;;;;;;;;3.40;99.90;;;;;;4932464;28;20021;-66
2022/02/09 07:56:32;;;;;;;;;;;3.40;99.90;;;;;;4932690;28;20312;-66
2022/02/09 07:58:59;;;;;;;;;;;3.50;99.90;;;;;;4933366;28;20033;-69
2022/02/09 08:01:26;;;;;;;;;;;3.50;99.90;;;;;;4931906;28;20005;-64
2022/02/09 08:03:53;;;;;;;;;;;3.60;99.90;;;;;;4934305;28;19973;-67
2022/02/09 08:06:24;;;;;;;;;;;3.70;99.90;;;;;;4933198;28;20024;-67
2022/02/09 08:08:53;;;;;;;;;;;3.70;99.90;;;;;;4934073;28;20298;-67
2022/02/09 08:11:26;;;;;;;;;;;3.70;99.90;;;;;;4934305;28;20037;-66
2022/02/09 08:26:08;;;;;;;;;;;3.90;99.90;;;;;;4934604;28;20472;-69
2022/02/09 08:30:59;;;;;;;;;;;3.90;99.90;;;;;;4935311;28;20040;-65
2022/02/09 08:33:26;;;;;;;;;;;3.90;99.90;;;;;;4931832;28;19954;-65
2022/02/09 08:35:54;;;;;;;;;;;3.90;99.90;;;;;;4933241;28;19970;-66
2022/02/09 08:38:21;;;;;;;;;;;3.90;99.90;;;;;;4933665;28;20037;-68
2022/02/09 08:40:47;;;;;;;;;;;3.90;99.90;;;;;;4935847;28;19977;-65
2022/02/09 08:43:14;;;;;;;;;;;4.00;99.90;;;;;;4933669;28;20529;-67
2022/02/09 08:45:42;;;;;;;;;;;4.00;99.90;;;;;;4933769;28;19930;-67
2022/02/09 08:48:09;;;;;;;;;;;4.00;99.90;;;;;;4931500;28;19969;-64
2022/02/09 08:50:36;;;;;;;;;;;4.10;99.90;;;;;;4950780;28;20443;-68
2022/02/09 08:53:04;;;;;;;;;;;4.10;99.90;;;;;;4930646;28;19938;-70
2022/02/09 08:55:31;;;;;;;;;;;4.20;99.90;;;;;;4931890;28;19931;-66
2022/02/09 08:57:58;;;;;;;;;;;4.30;99.90;;;;;;4931455;28;20025;-68
2022/02/09 09:00:30;;;;;;;;;;;4.30;99.90;;;;;;4929379;28;19930;-64
2022/02/09 09:03:26;;;;;;;;;;;4.30;99.90;;;;;;4929795;28;19984;-70
2022/02/09 09:05:57;;;;;;;;;;;4.40;99.90;;;;;;4931690;28;20438;-70
2022/02/09 10:34:02;;;;;;;;;;;4.90;99.90;;;;;;4931718;28;19990;-69
2022/02/09 10:36:29;;;;;;;;;;;4.90;99.90;;;;;;4929064;28;21101;-67
2022/02/09 10:39:04;;;;;;;;;;;4.80;99.90;;;;;;4931421;28;20103;-65
2022/02/09 10:41:37;;;;;;;;;;;4.80;99.90;;;;;;4930539;28;20045;-66
2022/02/09 10:44:06;;;;;;;;;;;4.70;99.90;;;;;;4928736;28;19930;-69
2022/02/09 10:46:45;;;;;;;;;;;4.70;99.90;;;;;;4934025;28;19952;-66
2022/02/09 10:49:12;;;;;;;;;;;4.70;99.90;;;;;;4931737;28;19930;-68
2022/02/09 10:51:48;;;;;;;;;;;4.70;99.90;;;;;;4932933;28;20577;-69
2022/02/09 10:54:18;;;;;;;;;;;4.70;99.90;;;;;;4934600;28;19981;-67
2022/02/09 10:56:50;;;;;;;;;;;4.60;99.90;;;;;;4932473;28;19930;-69
2022/02/09 10:59:19;;;;;;;;;;;4.60;99.90;;;;;;4933419;28;19930;-67
2022/02/09 11:01:46;;;;;;;;;;;4.60;99.90;;;;;;4962702;28;19930;-66
2022/02/09 11:04:13;;;;;;;;;;;4.60;99.90;;;;;;4933591;28;20289;-68
2022/02/09 11:06:42;;;;;;;;;;;4.60;99.90;;;;;;4935583;28;20844;-67
2022/02/09 11:09:10;;;;;;;;;;;4.60;99.90;;;;;;4935292;28;20024;-70
2022/02/09 11:11:39;;;;;;;;;;;4.60;99.90;;;;;;4935491;28;21289;-64
2022/02/09 11:14:06;;;;;;;;;;;4.60;99.90;;;;;;4934252;28;20407;-69
2022/02/09 11:16:34;;;;;;;;;;;4.60;99.90;;;;;;4933545;28;20039;-68
2022/02/09 11:19:01;;;;;;;;;;;4.60;99.90;;;;;;4935066;28;20006;-70
2022/02/09 11:21:31;;;;;;;;;;;4.60;99.90;;;;;;4935007;28;19937;-66
2022/02/09 11:24:01;;;;;;;;;;;4.70;99.90;;;;;;4933707;28;20028;-73
2022/02/09 11:32:01;;;;;;;;;;;4.80;99.90;;;;;;4933288;28;19953;-67
2022/02/09 11:34:28;;;;;;;;;;;4.80;99.90;;;;;;4933700;28;20178;-67
2022/02/09 11:37:07;;;;;;;;;;;4.80;99.90;;;;;;4935699;28;19938;-68
2022/02/09 11:39:47;;;;;;;;;;;4.80;99.90;;;;;;4931312;28;19994;-67
2022/02/09 11:42:27;;;;;;;;;;;4.80;99.90;;;;;;4906038;28;20060;-65
2022/02/09 11:45:41;;;;;;;;;;;4.80;99.90;;;;;;2480994;28;10002026;-69
2022/02/09 12:11:08;;;;;;;;;;;4.70;99.90;;;;;;4935016;28;19949;-68
2022/02/09 12:14:00;;;;;;;;;;;4.70;99.90;;;;;;4960062;28;19934;-69
2022/02/09 12:17:24;;;;;;;;;;;4.70;99.90;;;;;;4935862;28;19974;-68
2022/02/09 12:19:30;;;;;;;;;;;4.70;99.90;;;;;;4934091;28;20029;-68
2022/02/09 12:24:24;;;;;;;;;;;4.80;99.90;;;;;;4936355;28;19940;-71
2022/02/09 12:27:11;;;;;;;;;;;4.80;99.90;;;;;;4934942;28;19969;-71
2022/02/09 12:29:40;;;;;;;;;;;4.80;99.90;;;;;;4934612;28;19991;-68
2022/02/09 12:32:16;;;;;;;;;;;4.80;99.90;;;;;;4932846;28;20458;-70
2022/02/09 12:34:51;;;;;;;;;;;4.80;99.90;;;;;;4934942;28;20056;-65
2022/02/09 12:37:18;;;;;;;;;;;4.80;99.90;;;;;;4933384;28;21749;-64
2022/02/09 12:39:48;;;;;;;;;;;4.80;99.90;;;;;;4936560;28;19926;-70
2022/02/09 12:42:15;;;;;;;;;;;4.80;99.90;;;;;;4932727;28;20576;-75
2022/02/09 12:44:41;;;;;;;;;;;4.80;99.90;;;;;;4933555;28;20104;-67
2022/02/09 12:47:08;;;;;;;;;;;4.80;99.90;;;;;;4929942;28;20013;-69
2022/02/09 12:49:35;;;;;;;;;;;4.90;99.90;;;;;;4935635;28;19961;-70
2022/02/09 12:52:06;;;;;;;;;;;4.80;99.90;;;;;;4931692;28;20029;-65
2022/02/09 12:54:33;;;;;;;;;;;4.90;99.90;;;;;;4932860;28;19941;-68
2022/02/09 12:57:00;;;;;;;;;;;4.90;99.90;;;;;;4934738;28;20009;-70
2022/02/09 12:59:28;;;;;;;;;;;4.90;99.90;;;;;;4935196;28;20065;-69
2022/02/09 13:01:55;;;;;;;;;;;4.90;99.90;;;;;;4934325;28;20004;-68
2022/02/09 13:04:27;;;;;;;;;;;4.90;99.90;;;;;;4931647;28;20523;-69
2022/02/09 13:06:56;;;;;;;;;;;4.90;99.90;;;;;;4934179;28;20008;-71
2022/02/09 13:09:24;;;;;;;;;;;5.00;99.90;;;;;;4934306;28;20285;-72
2022/02/09 13:11:51;;;;;;;;;;;5.00;99.90;;;;;;4931406;28;20081;-70
2022/02/09 13:14:42;;;;;;;;;;;5.00;99.90;;;;;;4932521;28;19930;-66
2022/02/09 13:17:30;;;;;;;;;;;5.10;99.90;;;;;;4931996;28;19934;-68
2022/02/09 13:23:23;;;;;;;;;;;5.10;99.90;;;;;;4934208;28;21478;-70
2022/02/09 13:26:34;;;;;;;;;;;5.10;99.90;;;;;;4931364;28;19978;-68
2022/02/09 13:52:09;;;;;;;;;;;5.30;99.90;;;;;;4935932;28;20032;-72
2022/02/09 14:14:08;;;;;;;;;;;5.40;99.90;;;;;;4937701;28;20308;-68
2022/02/09 14:17:00;;;;;;;;;;;5.30;99.90;;;;;;4934834;28;19978;-70
2022/02/09 14:23:46;;;;;;;;;;;5.30;99.90;;;;;;4936050;28;19926;-71
2022/02/09 14:47:36;;;;;;;;;;;5.50;99.90;;;;;;4933044;28;20674;-69
2022/02/09 14:50:58;;;;;;;;;;;5.50;99.90;;;;;;4934806;28;20459;-70
2022/02/09 14:53:43;;;;;;;;;;;5.60;99.90;;;;;;4937394;28;19930;-65
2022/02/09 14:58:13;;;;;;;;;;;5.70;99.90;;;;;;4932076;28;20113;-67
2022/02/09 15:11:52;;;;;;;;;;;5.80;99.90;;;;;;4934983;28;19983;-69
2022/02/09 15:20:05;;;;;;;;;;;5.90;99.90;;;;;;4934732;28;19930;-68
2022/02/09 15:22:30;;;;;;;;;;;6.00;99.90;;;;;;4932585;28;20033;-68
2022/02/09 15:24:57;;;;;;;;;;;6.00;99.90;;;;;;4936097;28;19930;-64
2022/02/09 15:27:24;;;;;;;;;;;5.90;99.90;;;;;;4936384;28;20301;-68
2022/02/09 15:29:52;;;;;;;;;;;5.90;99.90;;;;;;4931338;28;20048;-70
2022/02/09 15:34:54;;;;;;;;;;;5.70;99.90;;;;;;4934508;28;19930;-72
2022/02/09 15:39:52;;;;;;;;;;;5.60;99.90;;;;;;4933889;28;20048;-68
2022/02/09 16:09:36;;;;;;;;;;;4.80;99.90;;;;;;4935039;28;19931;-68
2022/02/09 16:36:51;;;;;;;;;;;4.60;99.90;;;;;;4934098;28;20288;-68
2022/02/09 16:38:58;;;;;;;;;;;4.70;99.90;;;;;;4930874;28;19930;-65
2022/02/09 16:46:52;;;;;;;;;;;4.60;99.90;;;;;;4934589;28;19930;-68
2022/02/09 16:49:39;;;;;;;;;;;4.60;99.90;;;;;;4937855;28;19961;-74
2022/02/09 16:52:14;;;;;;;;;;;4.60;99.90;;;;;;4930493;28;19931;-71
2022/02/09 17:21:13;;;;;;;;;;;4.50;99.90;;;;;;4932794;28;20338;-67
2022/02/09 17:23:40;;;;;;;;;;;4.50;99.90;;;;;;4927990;28;20281;-67
2022/02/09 17:26:08;;;;;;;;;;;4.50;99.90;;;;;;4930066;28;20020;-68
2022/02/09 17:28:34;;;;;;;;;;;4.50;99.90;;;;;;4930178;28;19957;-72
2022/02/09 17:31:15;;;;;;;;;;;4.50;99.90;;;;;;4934818;28;20012;-72
2022/02/09 17:39:02;;;;;;;;;;;4.50;99.90;;;;;;4939645;28;20025;-71
2022/02/09 17:58:08;;;;;;;;;;;4.30;99.90;;;;;;4931680;28;20068;-65
2022/02/09 18:00:35;;;;;;;;;;;4.30;99.90;;;;;;4930574;28;19934;-71
2022/02/09 18:03:02;;;;;;;;;;;4.30;99.90;;;;;;4933991;28;20346;-67
2022/02/09 18:05:42;;;;;;;;;;;4.30;99.90;;;;;;4936210;28;20371;-71
2022/02/09 18:08:33;;;;;;;;;;;4.20;99.90;;;;;;4936473;28;19930;-66
2022/02/09 18:30:33;;;;;;;;;;;4.20;99.90;;;;;;4928932;28;20033;-70
2022/02/09 18:43:41;;;;;;;;;;;4.10;99.90;;;;;;4930852;28;20973;-71
2022/02/09 18:57:28;;;;;;;;;;;4.10;99.90;;;;;;4933933;28;20065;-67
2022/02/09 19:02:37;;;;;;;;;;;4.10;99.90;;;;;;4932110;28;19930;-69
2022/02/09 19:05:20;;;;;;;;;;;4.00;99.90;;;;;;4937065;28;20045;-68
2022/02/09 19:48:41;;;;;;;;;;;3.90;99.90;;;;;;4926561;28;20023;-76
2022/02/09 19:56:23;;;;;;;;;;;3.80;99.90;;;;;;4935416;28;20344;-66
2022/02/09 20:01:21;;;;;;;;;;;3.80;99.90;;;;;;4937335;28;20396;-68
2022/02/09 20:03:48;;;;;;;;;;;3.80;99.90;;;;;;4934546;28;19954;-68
2022/02/09 20:06:15;;;;;;;;;;;3.80;99.90;;;;;;4935515;28;20416;-71
2022/02/09 20:08:42;;;;;;;;;;;3.80;99.90;;;;;;4923770;28;20279;-66
2022/02/09 20:11:14;;;;;;;;;;;3.80;99.90;;;;;;4936944;28;20114;-62
2022/02/09 20:13:41;;;;;;;;;;;3.80;99.90;;;;;;4936031;28;20017;-64
2022/02/09 20:16:09;;;;;;;;;;;3.80;99.90;;;;;;4934295;28;19931;-64
2022/02/09 20:18:35;;;;;;;;;;;3.80;99.90;;;;;;4934848;28;20025;-65
2022/02/09 20:21:03;;;;;;;;;;;3.80;99.90;;;;;;4934837;28;19931;-62
2022/02/09 20:23:32;;;;;;;;;;;3.80;99.90;;;;;;4933193;28;19930;-71
2022/02/09 20:26:03;;;;;;;;;;;3.80;99.90;;;;;;4935863;28;19933;-64
2022/02/09 20:28:29;;;;;;;;;;;3.80;99.90;;;;;;4934053;28;19957;-72
2022/02/09 20:31:02;;;;;;;;;;;3.80;99.90;;;;;;4935193;28;19931;-64
2022/02/09 20:33:35;;;;;;;;;;;3.80;99.90;;;;;;4936116;28;19930;-66
2022/02/09 20:36:05;;;;;;;;;;;3.80;99.90;;;;;;4934488;28;20024;-68
2022/02/09 20:38:33;;;;;;;;;;;3.70;99.90;;;;;;4930615;28;20036;-72
2022/02/09 20:41:04;;;;;;;;;;;3.70;99.90;;;;;;4936017;28;19969;-68
2022/02/09 20:43:38;;;;;;;;;;;3.70;99.90;;;;;;4929433;28;20866;-66
2022/02/09 20:46:07;;;;;;;;;;;3.70;99.90;;;;;;4927789;28;20023;-67
2022/02/09 20:48:34;;;;;;;;;;;3.70;99.90;;;;;;4930970;28;20024;-75
2022/02/09 20:51:01;;;;;;;;;;;3.70;99.90;;;;;;4931444;28;20919;-63
2022/02/09 20:53:31;;;;;;;;;;;3.80;99.90;;;;;;4930221;28;20269;-67
2022/02/09 20:55:58;;;;;;;;;;;3.70;99.90;;;;;;4934658;28;20032;-75
2022/02/09 20:58:25;;;;;;;;;;;3.70;99.90;;;;;;4934261;28;20013;-67
2022/02/09 21:01:03;;;;;;;;;;;3.70;99.90;;;;;;4936351;28;20005;-70
2022/02/09 21:06:12;;;;;;;;;;;3.70;99.90;;;;;;4931345;28;20302;-67
2022/02/09 21:11:18;;;;;;;;;;;3.60;99.90;;;;;;4932494;28;20389;-68
2022/02/09 22:20:37;;;;;;;;;;;3.50;99.90;;;;;;4938627;28;20625;-71
2022/02/09 22:28:22;;;;;;;;;;;3.50;99.90;;;;;;4936479;28;20348;-77
2022/02/09 22:55:09;;;;;;;;;;;3.30;99.90;;;;;;4940182;28;20041;-66
2022/02/09 22:57:52;;;;;;;;;;;3.30;99.90;;;;;;4942060;28;19953;-66
2022/02/09 23:00:34;;;;;;;;;;;3.30;99.90;;;;;;4937931;28;20032;-66
2022/02/09 23:03:01;;;;;;;;;;;3.30;99.90;;;;;;4937145;28;19958;-74
2022/02/09 23:05:43;;;;;;;;;;;3.30;99.90;;;;;;4939884;28;20759;-70
2022/02/09 23:13:36;;;;;;;;;;;3.30;99.90;;;;;;4939170;28;19974;-77
